createdAt,value
2022-10-11T00:02:34.522Z,100.00
2022-10-11T00:07:58.708Z,100.00
2022-10-11T00:13:23.088Z,100.00
2022-10-11T00:18:49.196Z,100.00
2022-10-11T00:24:13.727Z,100.00
2022-10-11T00:29:40.562Z,100.00
2022-10-11T00:35:06.714Z,100.00
2022-10-11T00:40:31.050Z,100.00
2022-10-11T00:46:05.874Z,100.00
2022-10-11T00:51:40.442Z,100.00
2022-10-11T00:57:08.582Z,100.00
2022-10-11T01:02:32.543Z,100.00
2022-10-11T01:07:59.760Z,100.00
2022-10-11T01:13:36.624Z,100.00
2022-10-11T01:19:10.221Z,100.00
2022-10-11T01:25:06.209Z,100.00
2022-10-11T01:30:36.204Z,100.00
2022-10-11T01:36:08.823Z,100.00
2022-10-11T01:41:39.531Z,100.00
2022-10-11T01:47:05.693Z,100.00
2022-10-11T01:52:33.489Z,100.00
2022-10-11T01:58:14.361Z,100.00
2022-10-11T02:03:48.901Z,100.00
2022-10-11T02:09:18.980Z,100.00
2022-10-11T02:14:47.569Z,100.00
2022-10-11T02:20:19.867Z,100.00
2022-10-11T02:25:46.789Z,100.00
2022-10-11T02:31:13.661Z,100.00
2022-10-11T02:36:49.246Z,100.00
2022-10-11T02:42:18.986Z,100.00
2022-10-11T02:47:43.732Z,100.00
2022-10-11T02:53:10.211Z,100.00
2022-10-11T02:58:34.277Z,100.00
2022-10-11T03:04:00.419Z,100.00
2022-10-11T03:09:25.615Z,100.00
2022-10-11T03:14:49.150Z,100.00
2022-10-11T03:20:13.903Z,100.00
2022-10-11T03:25:41.457Z,100.00
2022-10-11T03:31:05.937Z,100.00
2022-10-11T03:36:30.635Z,100.00
2022-10-11T03:41:55.770Z,100.00
2022-10-11T03:47:20.356Z,100.00
2022-10-11T03:52:45.954Z,100.00
2022-10-11T03:58:12.437Z,100.00
2022-10-11T04:03:39.581Z,100.00
2022-10-11T04:09:05.105Z,100.00
2022-10-11T04:14:30.487Z,100.00
2022-10-11T04:19:54.055Z,100.00
2022-10-11T04:25:20.361Z,100.00
2022-10-11T04:30:48.645Z,100.00
2022-10-11T04:36:13.559Z,100.00
2022-10-11T04:41:38.349Z,100.00
2022-10-11T04:47:05.708Z,100.00
2022-10-11T04:52:30.122Z,100.00
2022-10-11T04:57:54.934Z,100.00
2022-10-11T05:03:24.885Z,100.00
2022-10-11T05:08:50.481Z,100.00
2022-10-11T05:14:14.725Z,100.00
2022-10-11T05:19:39.944Z,100.00
2022-10-11T05:25:03.864Z,100.00
2022-10-11T05:30:27.856Z,100.00
2022-10-11T05:35:53.408Z,100.00
2022-10-11T05:41:17.771Z,100.00
2022-10-11T05:46:41.949Z,100.00
2022-10-11T05:52:09.236Z,100.00
2022-10-11T05:57:33.848Z,99.85
2022-10-11T06:02:59.512Z,87.70
2022-10-11T06:08:25.464Z,76.22
2022-10-11T06:13:50.343Z,65.96
2022-10-11T06:19:14.874Z,61.61
2022-10-11T06:24:40.490Z,66.41
2022-10-11T06:30:07.443Z,62.51
2022-10-11T06:35:31.826Z,63.34
2022-10-11T06:40:59.436Z,62.40
2022-10-11T06:46:28.817Z,57.12
2022-10-11T06:51:53.533Z,52.73
2022-10-11T06:57:20.308Z,51.98
2022-10-11T07:02:45.606Z,57.56
2022-10-11T07:08:10.393Z,64.13
2022-10-11T07:13:37.037Z,69.76
2022-10-11T07:19:04.744Z,71.10
2022-10-11T07:24:30.371Z,75.06
2022-10-11T07:29:56.211Z,71.24
2022-10-11T07:35:20.995Z,74.06
2022-10-11T07:40:47.076Z,71.98
2022-10-11T07:46:13.265Z,59.41
2022-10-11T07:51:37.673Z,53.05
2022-10-11T07:57:05.625Z,49.97
2022-10-11T08:02:34.230Z,47.68
2022-10-11T08:07:59.499Z,47.70
2022-10-11T08:13:24.718Z,46.50
2022-10-11T08:18:51.395Z,46.17
2022-10-11T08:24:16.651Z,45.48
2022-10-11T08:29:42.172Z,45.41
2022-10-11T08:35:09.365Z,44.72
2022-10-11T08:40:36.696Z,43.89
2022-10-11T08:46:05.739Z,44.28
2022-10-11T08:51:38.067Z,42.01
2022-10-11T08:57:05.123Z,42.52
2022-10-11T09:03:06.418Z,41.44
2022-10-11T09:08:36.461Z,41.62
2022-10-11T09:14:13.202Z,42.23
2022-10-11T09:20:03.376Z,42.79
2022-10-11T09:25:32.704Z,42.07
2022-10-11T09:30:59.640Z,41.54
2022-10-11T09:36:30.276Z,41.92
2022-10-11T09:42:00.516Z,43.41
2022-10-11T09:47:28.474Z,45.33
2022-10-11T09:52:54.236Z,45.16
2022-10-11T09:58:30.387Z,45.64
2022-10-11T10:04:07.585Z,46.70
2022-10-11T10:09:33.111Z,45.54
2022-10-11T10:15:08.064Z,45.64
2022-10-11T10:20:34.754Z,45.33
2022-10-11T10:26:14.841Z,44.92
2022-10-11T10:37:39.970Z,47.48
2022-10-11T10:43:04.090Z,47.16
2022-10-11T10:49:02.006Z,47.32
2022-10-11T10:54:33.275Z,47.62
2022-10-11T11:00:14.015Z,48.52
2022-10-11T11:05:48.987Z,50.25
2022-10-11T11:11:28.378Z,51.18
2022-10-11T11:16:59.396Z,51.94
2022-10-11T11:22:35.928Z,52.63
2022-10-11T11:28:19.639Z,52.80
2022-10-11T11:33:55.836Z,51.86
2022-10-11T11:39:25.314Z,52.31
2022-10-11T11:44:50.865Z,52.63
2022-10-11T11:50:22.644Z,53.19
2022-10-11T11:55:54.908Z,51.98
2022-10-11T12:01:30.982Z,51.13
2022-10-11T12:07:18.575Z,51.69
2022-10-11T12:12:44.668Z,51.72
2022-10-11T12:18:18.015Z,51.30
2022-10-11T12:23:48.722Z,52.09
2022-10-11T12:29:44.099Z,52.42
2022-10-11T12:35:44.818Z,51.67
2022-10-11T12:41:50.127Z,53.17
2022-10-11T12:47:32.880Z,54.15
2022-10-11T12:53:05.729Z,54.84
2022-10-11T12:58:38.412Z,55.65
2022-10-11T13:04:08.170Z,55.51
2022-10-11T13:09:36.504Z,54.97
2022-10-11T13:15:07.526Z,56.29
2022-10-11T13:20:38.864Z,55.74
2022-10-11T13:26:06.201Z,56.74
2022-10-11T13:31:31.147Z,57.51
2022-10-11T13:36:57.976Z,58.99
2022-10-11T13:42:28.562Z,60.31
2022-10-11T13:47:53.980Z,62.60
2022-10-11T13:53:25.644Z,62.69
2022-10-11T13:58:49.831Z,65.02
2022-10-11T14:04:15.586Z,65.42
2022-10-11T14:09:48.844Z,67.16
2022-10-11T14:15:25.444Z,69.12
2022-10-11T14:20:49.582Z,69.68
2022-10-11T14:26:18.669Z,69.84
2022-10-11T14:31:42.929Z,69.74
2022-10-11T14:37:07.602Z,70.65
2022-10-11T14:42:33.548Z,72.24
2022-10-11T14:47:57.442Z,73.55
2022-10-11T14:53:25.161Z,73.69
2022-10-11T14:58:53.501Z,74.91
2022-10-11T15:04:17.831Z,75.30
2022-10-11T15:09:42.006Z,76.76
2022-10-11T15:15:08.404Z,77.61
2022-10-11T15:20:35.108Z,78.28
2022-10-11T15:26:00.122Z,79.36
2022-10-11T15:31:25.393Z,81.27
2022-10-11T15:36:50.034Z,82.75
2022-10-11T15:42:14.163Z,84.02
2022-10-11T15:47:40.143Z,84.46
2022-10-11T15:53:09.176Z,85.31
2022-10-11T15:58:33.657Z,85.47
2022-10-11T16:03:59.461Z,86.95
2022-10-11T16:09:24.553Z,86.12
2022-10-11T16:14:49.160Z,86.25
2022-10-11T16:20:15.945Z,85.71
2022-10-11T16:25:42.537Z,85.41
2022-10-11T16:31:11.204Z,86.05
2022-10-11T16:36:40.114Z,85.91
2022-10-11T16:42:04.378Z,86.34
2022-10-11T16:47:29.009Z,85.05
2022-10-11T16:52:55.478Z,83.99
2022-10-11T16:58:19.421Z,83.02
2022-10-11T17:03:45.147Z,81.91
2022-10-11T17:09:15.920Z,81.09
2022-10-11T17:14:42.364Z,80.38
2022-10-11T17:20:07.728Z,81.06
2022-10-11T17:25:33.204Z,81.04
2022-10-11T17:30:59.532Z,80.13
2022-10-11T17:36:27.818Z,78.23
2022-10-11T17:41:53.554Z,78.14
2022-10-11T17:47:18.209Z,76.36
2022-10-11T17:52:42.564Z,76.69
2022-10-11T17:58:08.021Z,76.23
2022-10-11T18:03:33.553Z,75.72
2022-10-11T18:09:01.610Z,73.75
2022-10-11T18:14:27.797Z,73.51
2022-10-11T18:19:53.230Z,74.05
2022-10-11T18:25:18.496Z,71.69
2022-10-11T18:30:44.748Z,71.26
2022-10-11T18:36:11.049Z,70.18
2022-10-11T18:41:36.817Z,69.20
2022-10-11T18:47:01.876Z,68.68
2022-10-11T18:52:28.064Z,67.56
2022-10-11T18:57:54.247Z,67.10
2022-10-11T19:03:19.164Z,67.13
2022-10-11T19:08:44.617Z,67.39
2022-10-11T19:14:12.205Z,66.46
2022-10-11T19:19:37.883Z,66.71
2022-10-11T19:25:02.399Z,65.49
2022-10-11T19:30:27.274Z,65.24
2022-10-11T19:35:57.014Z,66.03
2022-10-11T19:41:21.973Z,65.34
2022-10-11T19:46:53.609Z,65.68
2022-10-11T19:52:19.801Z,65.09
2022-10-11T19:57:43.774Z,64.48
2022-10-11T20:03:10.888Z,63.88
2022-10-11T20:08:37.742Z,63.61
2022-10-11T20:14:03.706Z,63.06
2022-10-11T20:19:31.439Z,61.79
2022-10-11T20:24:57.474Z,62.48
2022-10-11T20:30:21.412Z,60.73
2022-10-11T20:35:45.978Z,61.10
2022-10-11T20:41:14.241Z,61.63
2022-10-11T20:46:40.697Z,62.94
2022-10-11T20:52:06.067Z,63.36
2022-10-11T20:57:32.902Z,63.14
2022-10-11T21:02:57.545Z,64.04
2022-10-11T21:08:22.309Z,63.34
2022-10-11T21:13:48.333Z,62.58
2022-10-11T21:19:16.917Z,61.88
2022-10-11T21:24:46.099Z,61.37
2022-10-11T21:30:12.638Z,61.39
2022-10-11T21:35:40.229Z,59.83
2022-10-11T21:41:04.755Z,58.61
2022-10-11T21:47:01.163Z,58.17
2022-10-11T21:52:17.974Z,58.29
2022-10-11T21:57:43.728Z,58.75
2022-10-11T22:03:09.369Z,59.17
2022-10-11T22:08:33.997Z,58.43
2022-10-11T22:13:57.786Z,58.06
2022-10-11T22:19:23.395Z,57.40
2022-10-11T22:24:49.246Z,57.31
2022-10-11T22:30:13.965Z,58.03
2022-10-11T22:35:39.705Z,58.67
2022-10-11T22:41:03.690Z,57.77
2022-10-11T22:46:28.222Z,56.66
2022-10-11T22:51:54.113Z,56.60
2022-10-11T22:57:18.312Z,55.98
2022-10-11T23:02:43.025Z,56.95
2022-10-11T23:08:09.672Z,58.17
2022-10-11T23:13:34.226Z,58.01
2022-10-11T23:18:58.192Z,57.94
2022-10-11T23:24:24.697Z,58.67
2022-10-11T23:29:49.244Z,59.51
2022-10-11T23:35:13.741Z,59.21
2022-10-11T23:40:39.825Z,59.53
2022-10-11T23:46:05.795Z,59.62
2022-10-11T23:51:29.393Z,60.41
2022-10-11T23:56:54.707Z,60.65
